Quenemo, Kansas
Current Conditions -  °F | °C
As of 2:08 PM on Sunday 21 Dec 2014 (Local Time) from KFOE Reporting Station
Overcast Overcast  
Wind Chill: 40°   Ceiling: 1000
Heat Index: 45°   Visibility: 9mi
Dew Point: 40°   Wind: 10mph
Humidity: 82%   Direction: 180°S
Pressure: 29.83"   Gusts: NA
Location:  38.58°N, 95.53°W
Report Text: KFOE 212008Z 18009KT 9SM OVC010 07/04 A2983 RMK AO2 T00720044 $
Loading
Personal Weather Stations






























Interactive Weather Map New forecast layout! Learn more

10-Day Weather Forecast

Advertisements
Track Severe Weather on mobile